Nathaniel Bowditch — WDG4219 — position and weather

sailwx.info

Track history (hours):
 
Tides and Currents Weather Stations Pressure Air Temp Water Temp Dewpoint Dewpoint Depression Visibility Wind Speed Wind Dir Waves Ship Positions

Nathaniel Bowditch

Owner: Boston Harbor Cruises, Boston, MA. More information available from US FCC via Universal Licensing System and Coast Guard Vessel Documentation Center.

Last reported at 2018-Aug-20 22:31 UTC. Time now 2018-Aug-21 01:55 UTC.
Position N 42°31' W 070°53'.

; draft 1.5 m.

Type: Passenger vessel. MMSI: 367534240.

Date/timePositionNaut miles runAvg speedWind from/ knotsBaromVisibWave heightAir tempDewpointWater temp
2018-Aug-20 22:31N 42°31' W 070°53'0 0.0
2018-Aug-20 22:30N 42°31' W 070°53'614.0
2018-Aug-20 22:03N 42°25' W 070°51'125.9
2018-Aug-20 22:01N 42°24' W 070°52'816.4
2018-Aug-20 21:30N 42°22' W 071°03'0 0.0
2018-Aug-20 21:03N 42°22' W 071°03'0 0.0
2018-Aug-20 21:00N 42°22' W 071°03'714.8
2018-Aug-20 20:30N 42°24' W 070°53'817.1
2018-Aug-20 20:04N 42°31' W 070°53'0 1.7
2018-Aug-20 20:00N 42°31' W 070°53'0 0.0
2018-Aug-20 19:30N 42°31' W 070°53'0 0.0
2018-Aug-20 19:03N 42°31' W 070°53'0 0.0
2018-Aug-20 19:00N 42°31' W 070°53'0 0.0
2018-Aug-20 18:30N 42°31' W 070°53'0 0.0
2018-Aug-20 18:03N 42°31' W 070°53'0 0.0
2018-Aug-20 18:00N 42°31' W 070°53'0 0.0
2018-Aug-20 17:30N 42°31' W 070°53'0 0.1
2018-Aug-20 17:03N 42°31' W 070°53'0 0.0
2018-Aug-20 17:00N 42°31' W 070°53'0 0.0
2018-Aug-20 16:30N 42°31' W 070°53'0 0.0
2018-Aug-20 16:03N 42°31' W 070°53'0 0.0
2018-Aug-20 16:00N 42°31' W 070°53'0 0.0
2018-Aug-20 15:31N 42°31' W 070°53'0 0.0
2018-Aug-20 15:03N 42°31' W 070°53'0 0.0
2018-Aug-20 15:00N 42°31' W 070°53'0 0.1
2018-Aug-20 14:31N 42°31' W 070°53'714.6
2018-Aug-20 14:00N 42°24' W 070°53'714.9
2018-Aug-20 13:30N 42°22' W 071°03'0 0.8
2018-Aug-20 13:03N 42°22' W 071°02'0 0.9
2018-Aug-20 13:01N 42°22' W 071°03'0 0.7
2018-Aug-20 12:30N 42°22' W 071°03'0 0.0
2018-Aug-20 12:03N 42°22' W 071°03'0 0.0
2018-Aug-20 12:00N 42°22' W 071°03'816.7
2018-Aug-20 11:31N 42°24' W 070°52'716.2
2018-Aug-20 11:03N 42°31' W 070°53'0 0.5
2018-Aug-20 11:00N 42°31' W 070°53'0 0.0
2018-Aug-19 16:49N 42°31' W 070°53'0 0.0
2018-Aug-19 16:30N 42°31' W 070°53'0 0.0
2018-Aug-19 16:00N 42°31' W 070°53'0 0.0
2018-Aug-19 15:30N 42°31' W 070°53'0 0.0
2018-Aug-19 15:00N 42°31' W 070°53'0 0.6
2018-Aug-19 14:30N 42°31' W 070°52'815.0
2018-Aug-19 14:00N 42°24' W 070°53'714.8
2018-Aug-19 13:30N 42°22' W 071°03'0 0.0
2018-Aug-19 13:00N 42°22' W 071°03'714.8
2018-Aug-19 12:30N 42°24' W 070°53'714.9
2018-Aug-19 12:00N 42°31' W 070°53'0 0.0
2018-Aug-19 01:38N 42°31' W 070°53'0 0.0
2018-Aug-19 01:30N 42°31' W 070°53'714.1
2018-Aug-19 01:00N 42°24' W 070°53'815.4
2018-Aug-19 00:30N 42°22' W 071°03'0 0.1
2018-Aug-19 00:00N 42°22' W 071°03'816.6
2018-Aug-18 23:30N 42°25' W 070°53'612.8
2018-Aug-18 23:00N 42°31' W 070°53'0 0.0
2018-Aug-18 22:30N 42°31' W 070°53'713.5
2018-Aug-18 22:01N 42°25' W 070°53'815.9
2018-Aug-18 21:30N 42°22' W 071°03'0 0.0
2018-Aug-18 21:00N 42°22' W 071°03'714.5
2018-Aug-18 20:30N 42°24' W 070°54'815.1
2018-Aug-18 20:00N 42°31' W 070°53'0 0.0
2018-Aug-18 19:30N 42°31' W 070°53'714.2
2018-Aug-18 18:59N 42°24' W 070°53'715.3
2018-Aug-18 18:30N 42°22' W 071°03'0 0.6
2018-Aug-18 18:00N 42°22' W 071°03'815.3
2018-Aug-18 17:30N 42°24' W 070°53'714.6
2018-Aug-18 17:00N 42°31' W 070°53'2 4.4
2018-Aug-18 16:31N 42°31' W 070°50'1224.7
2018-Aug-18 16:00N 42°20' W 070°58'4 7.2
2018-Aug-18 15:31N 42°22' W 071°03'713.0
2018-Aug-18 15:00N 42°23' W 070°54'816.7
2018-Aug-18 14:30N 42°31' W 070°53'612.6
2018-Aug-18 14:00N 42°25' W 070°52'816.9
2018-Aug-18 13:30N 42°22' W 071°03'0 0.0
2018-Aug-18 13:00N 42°22' W 071°03'713.4
2018-Aug-18 12:30N 42°23' W 070°54'816.4
2018-Aug-18 12:00N 42°31' W 070°53'0 0.0
2018-Aug-18 11:30N 42°31' W 070°53'0 0.0
2018-Aug-18 01:26N 42°31' W 070°53'613.6
2018-Aug-18 01:00N 42°25' W 070°52'918.1
2018-Aug-18 00:30N 42°22' W 071°03'0 0.0
2018-Aug-18 00:00N 42°22' W 071°03'713.5
2018-Aug-17 23:31N 42°23' W 070°54'816.0
2018-Aug-17 23:00N 42°31' W 070°53'0 0.0
2018-Aug-17 22:30N 42°31' W 070°53'814.6
2018-Aug-17 21:56N 42°23' W 070°54'614.2
2018-Aug-17 21:29N 42°22' W 071°03'0 0.0
2018-Aug-17 21:00N 42°22' W 071°03'714.4
2018-Aug-17 20:30N 42°24' W 070°54'714.7
2018-Aug-17 20:00N 42°31' W 070°53'0 0.0
2018-Aug-17 19:30N 42°31' W 070°53'815.3
2018-Aug-17 19:01N 42°24' W 070°54'714.1
2018-Aug-17 18:30N 42°22' W 071°03'0 0.8
2018-Aug-17 18:00N 42°22' W 071°02'714.9
2018-Aug-17 17:30N 42°24' W 070°53'714.9
2018-Aug-17 17:00N 42°31' W 070°53'3 5.4
2018-Aug-17 16:31N 42°30' W 070°49'1224.5
2018-Aug-17 16:00N 42°20' W 070°59'3 6.1
2018-Aug-17 15:30N 42°22' W 071°03'714.9
2018-Aug-17 15:00N 42°24' W 070°53'714.4
2018-Aug-17 14:30N 42°31' W 070°53'1212.2
2018-Aug-17 13:30N 42°22' W 071°03'0 0.0
2018-Aug-17 13:00N 42°22' W 071°03'0 0.0
2018-Aug-17 12:30N 42°22' W 071°03'0 0.0
2018-Aug-17 12:00N 42°22' W 071°03'613.0
2018-Aug-17 11:30N 42°23' W 070°54'816.8
2018-Aug-17 11:00N 42°31' W 070°53'0 0.0
2018-Aug-17 10:30N 42°31' W 070°53'0 0.0
2018-Aug-16 22:35N 42°31' W 070°53'0 0.0
2018-Aug-16 22:30N 42°31' W 070°53'714.7
2018-Aug-16 22:00N 42°24' W 070°54'714.7
2018-Aug-16 21:31N 42°22' W 071°03'0 0.2
2018-Aug-16 21:00N 42°22' W 071°03'815.7
2018-Aug-16 20:30N 42°25' W 070°53'713.4
2018-Aug-16 20:00N 42°31' W 070°53'0 0.0
2018-Aug-16 19:30N 42°31' W 070°53'713.7
2018-Aug-16 19:00N 42°24' W 070°53'815.7
2018-Aug-16 18:31N 42°22' W 071°03'0 0.7
2018-Aug-16 18:01N 42°22' W 071°02'816.6
2018-Aug-16 17:31N 42°25' W 070°52'713.2
2018-Aug-16 17:00N 42°31' W 070°53'2 4.7
2018-Aug-16 16:31N 42°31' W 070°50'1224.7
2018-Aug-16 16:00N 42°20' W 070°59'3 6.8
2018-Aug-16 15:30N 42°22' W 071°03'917.3
2018-Aug-16 15:01N 42°25' W 070°52'611.7
2018-Aug-16 14:29N 42°31' W 070°53'814.8
2018-Aug-16 13:57N 42°23' W 070°54'715.1
2018-Aug-16 13:30N 42°22' W 071°03'1 1.0
2018-Aug-16 13:00N 42°22' W 071°02'612.5
2018-Aug-16 12:30N 42°18' W 070°55'713.4
2018-Aug-16 12:00N 42°22' W 071°03'714.2
2018-Aug-16 11:31N 42°24' W 070°54'815.4
2018-Aug-16 11:00N 42°31' W 070°53'0 0.0
2018-Aug-16 10:30N 42°31' W 070°53'0 0.0
2018-Aug-16 10:00N 42°31' W 070°53'0 0.0
2018-Aug-15 22:38N 42°31' W 070°53'0 0.8
2018-Aug-15 22:30N 42°31' W 070°53'817.4
2018-Aug-15 22:01N 42°23' W 070°54'612.9
2018-Aug-15 21:30N 42°22' W 071°03'0 0.1
2018-Aug-15 21:00N 42°22' W 071°03'714.4
2018-Aug-15 20:31N 42°24' W 070°54'714.5
2018-Aug-15 20:00N 42°31' W 070°53'0 0.0
2018-Aug-15 19:30N 42°31' W 070°53'714.1
2018-Aug-15 19:01N 42°24' W 070°53'815.1
2018-Aug-15 18:30N 42°22' W 071°03'0 0.4
2018-Aug-15 18:00N 42°22' W 071°03'815.6
2018-Aug-15 17:30N 42°25' W 070°53'713.0
2018-Aug-15 17:00N 42°31' W 070°53'3 5.8
2018-Aug-15 16:30N 42°30' W 070°49'1224.0
2018-Aug-15 16:00N 42°20' W 070°59'3 6.0
2018-Aug-15 15:31N 42°22' W 071°03'714.2
2018-Aug-15 15:00N 42°24' W 070°54'815.3
2018-Aug-15 14:30N 42°31' W 070°53'713.6
2018-Aug-15 14:01N 42°24' W 070°53'815.9
2018-Aug-15 13:30N 42°22' W 071°03'0 0.0
2018-Aug-15 13:00N 42°22' W 071°03'0 0.0
2018-Aug-15 12:30N 42°22' W 071°03'0 0.0
2018-Aug-15 12:00N 42°22' W 071°03'714.1
2018-Aug-15 11:30N 42°24' W 070°54'815.3
2018-Aug-15 11:00N 42°31' W 070°53'0 0.0
2018-Aug-15 10:30N 42°31' W 070°53'0 0.0
2018-Aug-14 22:32N 42°31' W 070°53'0 0.2
2018-Aug-14 22:30N 42°31' W 070°53'714.0
2018-Aug-14 21:59N 42°24' W 070°54'713.7
2018-Aug-14 21:27N 42°22' W 071°03'0 0.0
2018-Aug-14 21:00N 42°22' W 071°03'713.4
2018-Aug-14 20:30N 42°23' W 070°54'816.4
2018-Aug-14 20:00N 42°31' W 070°53'0 0.8
2018-Aug-14 19:30N 42°31' W 070°52'1020.1
2018-Aug-14 19:00N 42°22' W 070°56'510.8
2018-Aug-14 18:31N 42°22' W 071°03'0 0.4
2018-Aug-14 17:59N 42°22' W 071°03'817.4
2018-Aug-14 17:30N 42°25' W 070°52'612.2
2018-Aug-14 17:01N 42°31' W 070°53'3 5.5
2018-Aug-14 16:31N 42°30' W 070°49'1224.7
2018-Aug-14 16:00N 42°20' W 070°59'3 5.8
2018-Aug-14 15:30N 42°22' W 071°03'816.0
2018-Aug-14 15:00N 42°25' W 070°53'713.2
2018-Aug-14 14:30N 42°31' W 070°53'713.8
2018-Aug-14 14:00N 42°24' W 070°53'815.7
2018-Aug-14 13:30N 42°22' W 071°03'0 0.0
2018-Aug-14 13:00N 42°22' W 071°03'0 0.0
2018-Aug-14 12:30N 42°22' W 071°03'0 0.0
2018-Aug-14 12:00N 42°22' W 071°03'714.5
2018-Aug-14 11:30N 42°24' W 070°54'815.0
2018-Aug-14 11:00N 42°31' W 070°53'0 0.0
2018-Aug-14 10:30N 42°31' W 070°53'0 0.0
2018-Aug-13 23:13N 42°31' W 070°53'0 0.0
2018-Aug-13 23:00N 42°31' W 070°53'0 0.0
2018-Aug-13 22:30N 42°31' W 070°53'612.4
2018-Aug-13 22:00N 42°25' W 070°52'917.6
2018-Aug-13 21:30N 42°22' W 071°03'0 0.0
2018-Aug-13 21:00N 42°22' W 071°03'713.7
2018-Aug-13 20:30N 42°24' W 070°54'815.2
2018-Aug-13 20:00N 42°31' W 070°53'3 5.7
2018-Aug-13 19:30N 42°30' W 070°49'1325.1
2018-Aug-13 19:00N 42°20' W 070°60'3 5.2
2018-Aug-13 18:30N 42°22' W 071°03'0 0.3
2018-Aug-13 18:00N 42°22' W 071°03'713.1
2018-Aug-13 17:30N 42°23' W 070°54'815.6
2018-Aug-13 17:00N 42°31' W 070°53'2 5.0
2018-Aug-13 16:30N 42°31' W 070°50'1224.2
2018-Aug-13 16:00N 42°20' W 070°59'4 7.2
2018-Aug-13 15:30N 42°22' W 071°03'816.7
2018-Aug-13 15:00N 42°25' W 070°53'612.3
2018-Aug-13 14:30N 42°31' W 070°53'715.1
2018-Aug-13 14:00N 42°24' W 070°53'714.6
2018-Aug-13 13:30N 42°22' W 071°03'0 0.0
2018-Aug-13 13:00N 42°22' W 071°03'0 0.0
2018-Aug-13 12:30N 42°22' W 071°03'0 0.0
2018-Aug-13 12:00N 42°22' W 071°03'715.0
2018-Aug-13 11:30N 42°24' W 070°53'714.7
2018-Aug-13 11:00N 42°31' W 070°53'0 0.0
2018-Aug-13 10:29N 42°31' W 070°53'0 0.0
2018-Aug-13 01:30N 42°31' W 070°53'815.1
2018-Aug-13 01:00N 42°24' W 070°54'714.6
2018-Aug-13 00:30N 42°22' W 071°03'0 0.0
2018-Aug-13 00:00N 42°22' W 071°03'815.2
2018-Aug-12 23:30N 42°24' W 070°53'714.2
2018-Aug-12 23:00N 42°31' W 070°53'0 0.0
2018-Aug-12 22:30N 42°31' W 070°53'714.2
2018-Aug-12 22:00N 42°24' W 070°53'815.3
2018-Aug-12 21:30N 42°22' W 071°03'0 0.2
2018-Aug-12 21:00N 42°22' W 071°03'714.2
2018-Aug-12 20:30N 42°24' W 070°54'715.0
2018-Aug-12 20:00N 42°31' W 070°53'0 0.0
2018-Aug-12 19:30N 42°31' W 070°53'814.3
2018-Aug-12 18:58N 42°24' W 070°53'715.1
2018-Aug-12 18:29N 42°22' W 071°03'1 1.1
2018-Aug-12 18:00N 42°22' W 071°02'713.5
2018-Aug-12 17:30N 42°24' W 070°54'715.2
2018-Aug-12 17:00N 42°31' W 070°53'3 6.5
2018-Aug-12 16:30N 42°29' W 070°50'1122.2
2018-Aug-12 16:00N 42°20' W 070°59'3 6.1
2018-Aug-12 15:30N 42°22' W 071°03'917.3
2018-Aug-12 15:00N 42°26' W 070°52'610.9
2018-Aug-12 14:30N 42°31' W 070°53'816.8
2018-Aug-12 14:00N 42°23' W 070°54'713.3
2018-Aug-12 13:31N 42°22' W 071°03'0 0.0
2018-Aug-12 13:00N 42°22' W 071°03'816.9
2018-Aug-12 12:31N 42°25' W 070°53'612.3
2018-Aug-12 12:00N 42°31' W 070°53'0 0.0
2018-Aug-12 11:30N 42°31' W 070°53'0 0.0
2018-Aug-12 01:33N 42°31' W 070°53'0 1.4
2018-Aug-12 01:30N 42°31' W 070°53'917.8
2018-Aug-12 01:00N 42°22' W 070°55'612.3
2018-Aug-12 00:30N 42°22' W 071°03'0 0.0
2018-Aug-12 00:00N 42°22' W 071°03'816.5
2018-Aug-11 23:30N 42°25' W 070°53'612.2
2018-Aug-11 23:00N 42°31' W 070°53'0 0.0
2018-Aug-11 22:30N 42°31' W 070°53'917.4
2018-Aug-11 22:01N 42°23' W 070°55'612.6
2018-Aug-11 21:30N 42°22' W 071°03'0 0.0
2018-Aug-11 21:00N 42°22' W 071°03'715.0
2018-Aug-11 20:30N 42°24' W 070°53'714.2
2018-Aug-11 20:00N 42°31' W 070°53'0 0.0
2018-Aug-11 19:30N 42°31' W 070°53'713.5
2018-Aug-11 19:00N 42°25' W 070°52'917.5
2018-Aug-11 18:30N 42°22' W 071°03'0 0.9
2018-Aug-11 18:00N 42°22' W 071°02'713.7
2018-Aug-11 17:30N 42°24' W 070°54'714.8
2018-Aug-11 17:00N 42°31' W 070°53'3 5.8
2018-Aug-11 16:30N 42°30' W 070°49'1223.8
2018-Aug-11 16:00N 42°20' W 070°59'3 6.0
2018-Aug-11 15:30N 42°22' W 071°03'713.9
2018-Aug-11 15:01N 42°24' W 070°54'714.7
2018-Aug-11 14:30N 42°31' W 070°53'713.3
2018-Aug-11 13:59N 42°24' W 070°53'816.4
2018-Aug-11 13:30N 42°22' W 071°03'0 0.0
2018-Aug-11 13:00N 42°22' W 071°03'713.4
2018-Aug-11 12:30N 42°23' W 070°54'816.1
2018-Aug-11 12:00N 42°31' W 070°53'0 0.0
2018-Aug-11 02:05N 42°31' W 070°53'0 0.0
2018-Aug-11 02:00N 42°31' W 070°53'0 0.0
2018-Aug-11 01:30N 42°31' W 070°53'713.2
2018-Aug-11 01:01N 42°25' W 070°53'816.2
2018-Aug-11 00:30N 42°22' W 071°03'0 0.0
2018-Aug-11 00:00N 42°22' W 071°03'714.0
2018-Aug-10 23:31N 42°24' W 070°54'815.2
2018-Aug-10 23:00N 42°31' W 070°53'  
Track history (hours):
 
Tides and Currents Weather Stations Pressure Air Temp Water Temp Dewpoint Dewpoint Depression Visibility Wind Speed Wind Dir Waves Ship Positions

Nathaniel Bowditch

Owner: Boston Harbor Cruises, Boston, MA. More information available from US FCC via Universal Licensing System and Coast Guard Vessel Documentation Center.

Last reported at 2018-Aug-20 22:31 UTC. Time now 2018-Aug-21 01:55 UTC.
Position N 42°31' W 070°53'.

; draft 1.5 m.

Type: Passenger vessel. MMSI: 367534240.

Date/timePositionNaut miles runAvg speedWind from/ knotsBaromVisibWave heightAir tempDewpointWater temp
2018-Aug-20 22:31N 42°31' W 070°53'0 0.0
2018-Aug-20 22:30N 42°31' W 070°53'614.0
2018-Aug-20 22:03N 42°25' W 070°51'125.9
2018-Aug-20 22:01N 42°24' W 070°52'816.4
2018-Aug-20 21:30N 42°22' W 071°03'0 0.0
2018-Aug-20 21:03N 42°22' W 071°03'0 0.0
2018-Aug-20 21:00N 42°22' W 071°03'714.8
2018-Aug-20 20:30N 42°24' W 070°53'817.1
2018-Aug-20 20:04N 42°31' W 070°53'0 1.7
2018-Aug-20 20:00N 42°31' W 070°53'0 0.0
2018-Aug-20 19:30N 42°31' W 070°53'0 0.0
2018-Aug-20 19:03N 42°31' W 070°53'0 0.0
2018-Aug-20 19:00N 42°31' W 070°53'0 0.0
2018-Aug-20 18:30N 42°31' W 070°53'0 0.0
2018-Aug-20 18:03N 42°31' W 070°53'0 0.0
2018-Aug-20 18:00N 42°31' W 070°53'0 0.0
2018-Aug-20 17:30N 42°31' W 070°53'0 0.1
2018-Aug-20 17:03N 42°31' W 070°53'0 0.0
2018-Aug-20 17:00N 42°31' W 070°53'0 0.0
2018-Aug-20 16:30N 42°31' W 070°53'0 0.0
2018-Aug-20 16:03N 42°31' W 070°53'0 0.0
2018-Aug-20 16:00N 42°31' W 070°53'0 0.0
2018-Aug-20 15:31N 42°31' W 070°53'0 0.0
2018-Aug-20 15:03N 42°31' W 070°53'0 0.0
2018-Aug-20 15:00N 42°31' W 070°53'0 0.1
2018-Aug-20 14:31N 42°31' W 070°53'714.6
2018-Aug-20 14:00N 42°24' W 070°53'714.9
2018-Aug-20 13:30N 42°22' W 071°03'0 0.8
2018-Aug-20 13:03N 42°22' W 071°02'0 0.9
2018-Aug-20 13:01N 42°22' W 071°03'0 0.7
2018-Aug-20 12:30N 42°22' W 071°03'0 0.0
2018-Aug-20 12:03N 42°22' W 071°03'0 0.0
2018-Aug-20 12:00N 42°22' W 071°03'816.7
2018-Aug-20 11:31N 42°24' W 070°52'716.2
2018-Aug-20 11:03N 42°31' W 070°53'0 0.5
2018-Aug-20 11:00N 42°31' W 070°53'0 0.0
2018-Aug-19 16:49N 42°31' W 070°53'0 0.0
2018-Aug-19 16:30N 42°31' W 070°53'0 0.0
2018-Aug-19 16:00N 42°31' W 070°53'0 0.0
2018-Aug-19 15:30N 42°31' W 070°53'0 0.0
2018-Aug-19 15:00N 42°31' W 070°53'0 0.6
2018-Aug-19 14:30N 42°31' W 070°52'815.0
2018-Aug-19 14:00N 42°24' W 070°53'714.8
2018-Aug-19 13:30N 42°22' W 071°03'0 0.0
2018-Aug-19 13:00N 42°22' W 071°03'714.8
2018-Aug-19 12:30N 42°24' W 070°53'714.9
2018-Aug-19 12:00N 42°31' W 070°53'0 0.0
2018-Aug-19 01:38N 42°31' W 070°53'0 0.0
2018-Aug-19 01:30N 42°31' W 070°53'714.1
2018-Aug-19 01:00N 42°24' W 070°53'815.4
2018-Aug-19 00:30N 42°22' W 071°03'0 0.1
2018-Aug-19 00:00N 42°22' W 071°03'816.6
2018-Aug-18 23:30N 42°25' W 070°53'612.8
2018-Aug-18 23:00N 42°31' W 070°53'0 0.0
2018-Aug-18 22:30N 42°31' W 070°53'713.5
2018-Aug-18 22:01N 42°25' W 070°53'815.9
2018-Aug-18 21:30N 42°22' W 071°03'0 0.0
2018-Aug-18 21:00N 42°22' W 071°03'714.5
2018-Aug-18 20:30N 42°24' W 070°54'815.1
2018-Aug-18 20:00N 42°31' W 070°53'0 0.0
2018-Aug-18 19:30N 42°31' W 070°53'714.2
2018-Aug-18 18:59N 42°24' W 070°53'715.3
2018-Aug-18 18:30N 42°22' W 071°03'0 0.6
2018-Aug-18 18:00N 42°22' W 071°03'815.3
2018-Aug-18 17:30N 42°24' W 070°53'714.6
2018-Aug-18 17:00N 42°31' W 070°53'2 4.4
2018-Aug-18 16:31N 42°31' W 070°50'1224.7
2018-Aug-18 16:00N 42°20' W 070°58'4 7.2
2018-Aug-18 15:31N 42°22' W 071°03'713.0
2018-Aug-18 15:00N 42°23' W 070°54'816.7
2018-Aug-18 14:30N 42°31' W 070°53'612.6
2018-Aug-18 14:00N 42°25' W 070°52'816.9
2018-Aug-18 13:30N 42°22' W 071°03'0 0.0
2018-Aug-18 13:00N 42°22' W 071°03'713.4
2018-Aug-18 12:30N 42°23' W 070°54'816.4
2018-Aug-18 12:00N 42°31' W 070°53'0 0.0
2018-Aug-18 11:30N 42°31' W 070°53'0 0.0
2018-Aug-18 01:26N 42°31' W 070°53'613.6
2018-Aug-18 01:00N 42°25' W 070°52'918.1
2018-Aug-18 00:30N 42°22' W 071°03'0 0.0
2018-Aug-18 00:00N 42°22' W 071°03'713.5
2018-Aug-17 23:31N 42°23' W 070°54'816.0
2018-Aug-17 23:00N 42°31' W 070°53'0 0.0
2018-Aug-17 22:30N 42°31' W 070°53'814.6
2018-Aug-17 21:56N 42°23' W 070°54'614.2
2018-Aug-17 21:29N 42°22' W 071°03'0 0.0
2018-Aug-17 21:00N 42°22' W 071°03'714.4
2018-Aug-17 20:30N 42°24' W 070°54'714.7
2018-Aug-17 20:00N 42°31' W 070°53'0 0.0
2018-Aug-17 19:30N 42°31' W 070°53'815.3
2018-Aug-17 19:01N 42°24' W 070°54'714.1
2018-Aug-17 18:30N 42°22' W 071°03'0 0.8
2018-Aug-17 18:00N 42°22' W 071°02'714.9
2018-Aug-17 17:30N 42°24' W 070°53'714.9
2018-Aug-17 17:00N 42°31' W 070°53'3 5.4
2018-Aug-17 16:31N 42°30' W 070°49'1224.5
2018-Aug-17 16:00N 42°20' W 070°59'3 6.1
2018-Aug-17 15:30N 42°22' W 071°03'714.9
2018-Aug-17 15:00N 42°24' W 070°53'714.4
2018-Aug-17 14:30N 42°31' W 070°53'1212.2
2018-Aug-17 13:30N 42°22' W 071°03'0 0.0
2018-Aug-17 13:00N 42°22' W 071°03'0 0.0
2018-Aug-17 12:30N 42°22' W 071°03'0 0.0
2018-Aug-17 12:00N 42°22' W 071°03'613.0
2018-Aug-17 11:30N 42°23' W 070°54'816.8
2018-Aug-17 11:00N 42°31' W 070°53'0 0.0
2018-Aug-17 10:30N 42°31' W 070°53'0 0.0
2018-Aug-16 22:35N 42°31' W 070°53'0 0.0
2018-Aug-16 22:30N 42°31' W 070°53'714.7
2018-Aug-16 22:00N 42°24' W 070°54'714.7
2018-Aug-16 21:31N 42°22' W 071°03'0 0.2
2018-Aug-16 21:00N 42°22' W 071°03'815.7
2018-Aug-16 20:30N 42°25' W 070°53'713.4
2018-Aug-16 20:00N 42°31' W 070°53'0 0.0
2018-Aug-16 19:30N 42°31' W 070°53'713.7
2018-Aug-16 19:00N 42°24' W 070°53'815.7
2018-Aug-16 18:31N 42°22' W 071°03'0 0.7
2018-Aug-16 18:01N 42°22' W 071°02'816.6
2018-Aug-16 17:31N 42°25' W 070°52'713.2
2018-Aug-16 17:00N 42°31' W 070°53'2 4.7
2018-Aug-16 16:31N 42°31' W 070°50'1224.7
2018-Aug-16 16:00N 42°20' W 070°59'3 6.8
2018-Aug-16 15:30N 42°22' W 071°03'917.3
2018-Aug-16 15:01N 42°25' W 070°52'611.7
2018-Aug-16 14:29N 42°31' W 070°53'814.8
2018-Aug-16 13:57N 42°23' W 070°54'715.1
2018-Aug-16 13:30N 42°22' W 071°03'1 1.0
2018-Aug-16 13:00N 42°22' W 071°02'612.5
2018-Aug-16 12:30N 42°18' W 070°55'713.4
2018-Aug-16 12:00N 42°22' W 071°03'714.2
2018-Aug-16 11:31N 42°24' W 070°54'815.4
2018-Aug-16 11:00N 42°31' W 070°53'0 0.0
2018-Aug-16 10:30N 42°31' W 070°53'0 0.0
2018-Aug-16 10:00N 42°31' W 070°53'0 0.0
2018-Aug-15 22:38N 42°31' W 070°53'0 0.8
2018-Aug-15 22:30N 42°31' W 070°53'817.4
2018-Aug-15 22:01N 42°23' W 070°54'612.9
2018-Aug-15 21:30N 42°22' W 071°03'0 0.1
2018-Aug-15 21:00N 42°22' W 071°03'714.4
2018-Aug-15 20:31N 42°24' W 070°54'714.5
2018-Aug-15 20:00N 42°31' W 070°53'0 0.0
2018-Aug-15 19:30N 42°31' W 070°53'714.1
2018-Aug-15 19:01N 42°24' W 070°53'815.1
2018-Aug-15 18:30N 42°22' W 071°03'0 0.4
2018-Aug-15 18:00N 42°22' W 071°03'815.6
2018-Aug-15 17:30N 42°25' W 070°53'713.0
2018-Aug-15 17:00N 42°31' W 070°53'3 5.8
2018-Aug-15 16:30N 42°30' W 070°49'1224.0
2018-Aug-15 16:00N 42°20' W 070°59'3 6.0
2018-Aug-15 15:31N 42°22' W 071°03'714.2
2018-Aug-15 15:00N 42°24' W 070°54'815.3
2018-Aug-15 14:30N 42°31' W 070°53'713.6
2018-Aug-15 14:01N 42°24' W 070°53'815.9
2018-Aug-15 13:30N 42°22' W 071°03'0 0.0
2018-Aug-15 13:00N 42°22' W 071°03'0 0.0
2018-Aug-15 12:30N 42°22' W 071°03'0 0.0
2018-Aug-15 12:00N 42°22' W 071°03'714.1
2018-Aug-15 11:30N 42°24' W 070°54'815.3
2018-Aug-15 11:00N 42°31' W 070°53'0 0.0
2018-Aug-15 10:30N 42°31' W 070°53'0 0.0
2018-Aug-14 22:32N 42°31' W 070°53'0 0.2
2018-Aug-14 22:30N 42°31' W 070°53'714.0
2018-Aug-14 21:59N 42°24' W 070°54'713.7
2018-Aug-14 21:27N 42°22' W 071°03'0 0.0
2018-Aug-14 21:00N 42°22' W 071°03'713.4
2018-Aug-14 20:30N 42°23' W 070°54'816.4
2018-Aug-14 20:00N 42°31' W 070°53'0 0.8
2018-Aug-14 19:30N 42°31' W 070°52'1020.1
2018-Aug-14 19:00N 42°22' W 070°56'510.8
2018-Aug-14 18:31N 42°22' W 071°03'0 0.4
2018-Aug-14 17:59N 42°22' W 071°03'817.4
2018-Aug-14 17:30N 42°25' W 070°52'612.2
2018-Aug-14 17:01N 42°31' W 070°53'3 5.5
2018-Aug-14 16:31N 42°30' W 070°49'1224.7
2018-Aug-14 16:00N 42°20' W 070°59'3 5.8
2018-Aug-14 15:30N 42°22' W 071°03'816.0
2018-Aug-14 15:00N 42°25' W 070°53'713.2
2018-Aug-14 14:30N 42°31' W 070°53'713.8
2018-Aug-14 14:00N 42°24' W 070°53'815.7
2018-Aug-14 13:30N 42°22' W 071°03'0 0.0
2018-Aug-14 13:00N 42°22' W 071°03'0 0.0
2018-Aug-14 12:30N 42°22' W 071°03'0 0.0
2018-Aug-14 12:00N 42°22' W 071°03'714.5
2018-Aug-14 11:30N 42°24' W 070°54'815.0
2018-Aug-14 11:00N 42°31' W 070°53'0 0.0
2018-Aug-14 10:30N 42°31' W 070°53'0 0.0
2018-Aug-13 23:13N 42°31' W 070°53'0 0.0
2018-Aug-13 23:00N 42°31' W 070°53'0 0.0
2018-Aug-13 22:30N 42°31' W 070°53'612.4
2018-Aug-13 22:00N 42°25' W 070°52'917.6
2018-Aug-13 21:30N 42°22' W 071°03'0 0.0
2018-Aug-13 21:00N 42°22' W 071°03'713.7
2018-Aug-13 20:30N 42°24' W 070°54'815.2
2018-Aug-13 20:00N 42°31' W 070°53'3 5.7
2018-Aug-13 19:30N 42°30' W 070°49'1325.1
2018-Aug-13 19:00N 42°20' W 070°60'3 5.2
2018-Aug-13 18:30N 42°22' W 071°03'0 0.3
2018-Aug-13 18:00N 42°22' W 071°03'713.1
2018-Aug-13 17:30N 42°23' W 070°54'815.6
2018-Aug-13 17:00N 42°31' W 070°53'2 5.0
2018-Aug-13 16:30N 42°31' W 070°50'1224.2
2018-Aug-13 16:00N 42°20' W 070°59'4 7.2
2018-Aug-13 15:30N 42°22' W 071°03'816.7
2018-Aug-13 15:00N 42°25' W 070°53'612.3
2018-Aug-13 14:30N 42°31' W 070°53'715.1
2018-Aug-13 14:00N 42°24' W 070°53'714.6
2018-Aug-13 13:30N 42°22' W 071°03'0 0.0
2018-Aug-13 13:00N 42°22' W 071°03'0 0.0
2018-Aug-13 12:30N 42°22' W 071°03'0 0.0
2018-Aug-13 12:00N 42°22' W 071°03'715.0
2018-Aug-13 11:30N 42°24' W 070°53'714.7
2018-Aug-13 11:00N 42°31' W 070°53'0 0.0
2018-Aug-13 10:29N 42°31' W 070°53'0 0.0
2018-Aug-13 01:30N 42°31' W 070°53'815.1
2018-Aug-13 01:00N 42°24' W 070°54'714.6
2018-Aug-13 00:30N 42°22' W 071°03'0 0.0
2018-Aug-13 00:00N 42°22' W 071°03'815.2
2018-Aug-12 23:30N 42°24' W 070°53'714.2
2018-Aug-12 23:00N 42°31' W 070°53'0 0.0
2018-Aug-12 22:30N 42°31' W 070°53'714.2
2018-Aug-12 22:00N 42°24' W 070°53'815.3
2018-Aug-12 21:30N 42°22' W 071°03'0 0.2
2018-Aug-12 21:00N 42°22' W 071°03'714.2
2018-Aug-12 20:30N 42°24' W 070°54'715.0
2018-Aug-12 20:00N 42°31' W 070°53'0 0.0
2018-Aug-12 19:30N 42°31' W 070°53'814.3
2018-Aug-12 18:58N 42°24' W 070°53'715.1
2018-Aug-12 18:29N 42°22' W 071°03'1 1.1
2018-Aug-12 18:00N 42°22' W 071°02'713.5
2018-Aug-12 17:30N 42°24' W 070°54'715.2
2018-Aug-12 17:00N 42°31' W 070°53'3 6.5
2018-Aug-12 16:30N 42°29' W 070°50'1122.2
2018-Aug-12 16:00N 42°20' W 070°59'3 6.1
2018-Aug-12 15:30N 42°22' W 071°03'917.3
2018-Aug-12 15:00N 42°26' W 070°52'610.9
2018-Aug-12 14:30N 42°31' W 070°53'816.8
2018-Aug-12 14:00N 42°23' W 070°54'713.3
2018-Aug-12 13:31N 42°22' W 071°03'0 0.0
2018-Aug-12 13:00N 42°22' W 071°03'816.9
2018-Aug-12 12:31N 42°25' W 070°53'612.3
2018-Aug-12 12:00N 42°31' W 070°53'0 0.0
2018-Aug-12 11:30N 42°31' W 070°53'0 0.0
2018-Aug-12 01:33N 42°31' W 070°53'0 1.4
2018-Aug-12 01:30N 42°31' W 070°53'917.8
2018-Aug-12 01:00N 42°22' W 070°55'612.3
2018-Aug-12 00:30N 42°22' W 071°03'0 0.0
2018-Aug-12 00:00N 42°22' W 071°03'816.5
2018-Aug-11 23:30N 42°25' W 070°53'612.2
2018-Aug-11 23:00N 42°31' W 070°53'0 0.0
2018-Aug-11 22:30N 42°31' W 070°53'917.4
2018-Aug-11 22:01N 42°23' W 070°55'612.6
2018-Aug-11 21:30N 42°22' W 071°03'0 0.0
2018-Aug-11 21:00N 42°22' W 071°03'715.0
2018-Aug-11 20:30N 42°24' W 070°53'714.2
2018-Aug-11 20:00N 42°31' W 070°53'0 0.0
2018-Aug-11 19:30N 42°31' W 070°53'713.5
2018-Aug-11 19:00N 42°25' W 070°52'917.5
2018-Aug-11 18:30N 42°22' W 071°03'0 0.9
2018-Aug-11 18:00N 42°22' W 071°02'713.7
2018-Aug-11 17:30N 42°24' W 070°54'714.8
2018-Aug-11 17:00N 42°31' W 070°53'3 5.8
2018-Aug-11 16:30N 42°30' W 070°49'1223.8
2018-Aug-11 16:00N 42°20' W 070°59'3 6.0
2018-Aug-11 15:30N 42°22' W 071°03'713.9
2018-Aug-11 15:01N 42°24' W 070°54'714.7
2018-Aug-11 14:30N 42°31' W 070°53'713.3
2018-Aug-11 13:59N 42°24' W 070°53'816.4
2018-Aug-11 13:30N 42°22' W 071°03'0 0.0
2018-Aug-11 13:00N 42°22' W 071°03'713.4
2018-Aug-11 12:30N 42°23' W 070°54'816.1
2018-Aug-11 12:00N 42°31' W 070°53'0 0.0
2018-Aug-11 02:05N 42°31' W 070°53'0 0.0
2018-Aug-11 02:00N 42°31' W 070°53'0 0.0
2018-Aug-11 01:30N 42°31' W 070°53'713.2
2018-Aug-11 01:01N 42°25' W 070°53'816.2
2018-Aug-11 00:30N 42°22' W 071°03'0 0.0
2018-Aug-11 00:00N 42°22' W 071°03'714.0
2018-Aug-10 23:31N 42°24' W 070°54'815.2
2018-Aug-10 23:00N 42°31' W 070°53'  

Dump ship's entire track history